Saint Bride's, Canada
Current Conditions -  °F | °C
As of 2:00 PM on Tuesday 21 Oct 2014 (Local Time) from CYYT Reporting Station
Scattered Clouds Scattered Clouds  
Wind Chill: 52°   Ceiling: Unl
Heat Index: 52°   Visibility: 15mi
Dew Point: 39°   Wind: 18mph
Humidity: 62%   Direction: 270°W
Pressure: 30.04"   Gusts: 31mph
Location:  46.92°N, 54.18°W
Report Text: CYYT 211600Z 27016G27KT 15SM SCT036 SCT200 11/04 A3004 RMK SC3CI1 SLP175
Loading
Personal Weather Stations






























Interactive Weather Map
Tropical Storm Tracking
New forecast layout! Learn more

10-Day Weather Forecast

Advertisements
Track Severe Weather on mobile